createdAt,value
2023-07-10T00:01:36.872Z,24.90
2023-07-10T00:11:39.695Z,24.80
2023-07-10T00:21:41.961Z,24.80
2023-07-10T00:31:43.802Z,24.80
2023-07-10T00:41:49.297Z,24.60
2023-07-10T00:52:06.761Z,24.40
2023-07-10T01:02:08.509Z,24.30
2023-07-10T01:12:10.413Z,24.10
2023-07-10T01:22:12.334Z,24.00
2023-07-10T01:32:17.854Z,24.00
2023-07-10T01:42:20.088Z,23.90
2023-07-10T01:52:23.372Z,23.90
2023-07-10T02:02:25.268Z,24.00
2023-07-10T02:12:27.119Z,23.90
2023-07-10T02:22:29.097Z,24.00
2023-07-10T02:32:30.867Z,23.90
2023-07-10T02:42:32.624Z,23.90
2023-07-10T02:52:34.350Z,23.90
2023-07-10T03:02:36.351Z,23.90
2023-07-10T03:12:38.161Z,23.90
2023-07-10T03:22:39.969Z,23.80
2023-07-10T03:32:41.760Z,23.70
2023-07-10T03:42:43.582Z,23.70
2023-07-10T03:52:45.311Z,23.60
2023-07-10T04:02:47.015Z,23.70
2023-07-10T04:12:48.722Z,23.70
2023-07-10T04:22:50.430Z,23.70
2023-07-10T04:32:52.261Z,23.70
2023-07-10T04:42:55.720Z,23.70
2023-07-10T04:52:57.409Z,23.70
2023-07-10T05:02:59.109Z,23.60
2023-07-10T05:13:00.875Z,23.70
2023-07-10T05:23:02.690Z,23.90
2023-07-10T05:33:07.028Z,24.20
2023-07-10T05:43:10.318Z,24.40
2023-07-10T05:53:12.072Z,24.70
2023-07-10T06:03:13.942Z,25.10
2023-07-10T06:13:15.933Z,25.30
2023-07-10T06:23:17.653Z,25.20
2023-07-10T06:33:19.441Z,25.30
2023-07-10T06:43:21.717Z,25.30
2023-07-10T06:53:27.031Z,25.30
2023-07-10T07:03:30.407Z,25.20
2023-07-10T07:13:32.130Z,25.30
2023-07-10T07:23:33.839Z,25.60
2023-07-10T07:33:35.600Z,25.80
2023-07-10T07:43:37.356Z,25.80
2023-07-10T07:53:42.264Z,26.00
2023-07-10T08:03:44.095Z,26.10
2023-07-10T08:13:46.043Z,26.30
2023-07-10T08:23:47.860Z,26.50
2023-07-10T08:33:49.672Z,26.60
2023-07-10T08:43:52.003Z,26.80
2023-07-10T08:54:04.727Z,27.00
2023-07-10T09:04:12.399Z,27.10
2023-07-10T09:14:51.909Z,27.20
2023-07-10T09:24:54.950Z,27.50
2023-07-10T09:34:59.947Z,27.50
2023-07-10T09:45:01.907Z,27.60
2023-07-10T09:55:09.686Z,27.70
2023-07-10T10:05:16.440Z,27.90
2023-07-10T10:15:29.144Z,28.00
2023-07-10T10:25:38.628Z,28.00
2023-07-10T10:35:46.062Z,28.00
2023-07-10T10:45:55.930Z,28.00
2023-07-10T10:56:26.277Z,28.20
2023-07-10T11:06:39.362Z,28.50
2023-07-10T11:16:41.689Z,28.30
2023-07-10T11:26:43.936Z,28.30
2023-07-10T11:36:48.202Z,28.50
2023-07-10T11:47:01.721Z,28.70
2023-07-10T11:57:15.998Z,28.80
2023-07-10T12:07:18.284Z,29.10
2023-07-10T12:37:29.998Z,29.80
2023-07-10T12:47:39.076Z,29.80
2023-07-10T12:57:50.143Z,30.00
2023-07-10T13:07:55.334Z,30.00
2023-07-10T13:17:57.350Z,30.10
2023-07-10T13:27:59.302Z,30.00
2023-07-10T13:38:01.119Z,30.30
2023-07-10T13:48:09.094Z,30.50
2023-07-10T13:58:20.545Z,30.50
2023-07-10T14:08:27.507Z,30.50
2023-07-10T14:18:30.459Z,30.40
2023-07-10T14:28:32.128Z,30.60
2023-07-10T14:38:33.857Z,31.70
2023-07-10T14:48:35.932Z,31.60
2023-07-10T14:58:38.553Z,31.30
2023-07-10T15:08:40.294Z,32.10
2023-07-10T15:18:43.246Z,31.80
2023-07-10T15:28:44.967Z,31.30
2023-07-10T15:38:47.249Z,31.20
2023-07-10T15:48:49.136Z,31.20
2023-07-10T15:58:50.875Z,31.30
2023-07-10T16:08:52.609Z,31.40
2023-07-10T16:18:55.298Z,33.40
2023-07-10T16:28:57.178Z,35.20
2023-07-10T16:38:58.899Z,34.70
2023-07-10T16:49:00.725Z,33.00
2023-07-10T16:59:02.427Z,32.00
2023-07-10T17:09:05.738Z,31.70
2023-07-10T17:19:07.735Z,32.80
2023-07-10T17:29:18.509Z,33.30
2023-07-10T17:39:27.070Z,33.10
2023-07-10T17:49:33.254Z,34.00
2023-07-10T17:59:35.977Z,33.90
2023-07-10T18:09:37.759Z,32.40
2023-07-10T18:19:39.885Z,30.90
2023-07-10T18:29:42.135Z,30.20
2023-07-10T18:39:44.873Z,29.70
2023-07-10T18:49:46.698Z,29.30
2023-07-10T18:59:48.514Z,28.90
2023-07-10T19:09:50.450Z,28.60
2023-07-10T19:19:54.211Z,28.30
2023-07-10T19:29:56.020Z,27.90
2023-07-10T19:39:59.022Z,27.70
2023-07-10T19:50:00.766Z,27.40
2023-07-10T20:00:02.778Z,27.10
2023-07-10T20:10:04.977Z,27.00
2023-07-10T20:20:37.361Z,26.70
2023-07-10T20:30:39.286Z,26.40
2023-07-10T20:40:41.230Z,26.10
2023-07-10T20:50:43.257Z,26.00
2023-07-10T21:00:46.629Z,25.80
2023-07-10T21:10:49.894Z,25.60
2023-07-10T21:20:52.277Z,25.30
2023-07-10T21:30:54.136Z,25.10
2023-07-10T21:40:57.695Z,24.90
2023-07-10T21:51:02.291Z,24.80
2023-07-10T22:01:04.125Z,24.50
2023-07-10T22:11:32.280Z,24.40
2023-07-10T22:21:35.752Z,24.20
2023-07-10T22:31:40.939Z,24.10
2023-07-10T22:41:44.374Z,23.90
2023-07-10T22:51:46.172Z,23.70
2023-07-10T23:01:50.036Z,23.60
2023-07-10T23:11:52.139Z,23.40
2023-07-10T23:21:53.897Z,23.20
2023-07-10T23:31:55.662Z,23.10
2023-07-10T23:41:57.385Z,22.80
2023-07-10T23:51:59.081Z,22.80
